Time;durP1;ratioP1;P1;durP2;ratioP2;P2;SDS_P1;SDS_P2;PMS_P1;PMS_P2;Temp;Humidity;BMP_temperature;BMP_pressure;BME280_temperature;BME280_humidity;BME280_pressure;Samples;Min_cycle;Max_cycle;Signal;HPM_P1;HPM_P2
2021/12/06 00:02:03;;;;;;;34.65;16.75;;;;;;;-3.17;83.86;99916.56;4961358;29;20050;-56
2021/12/06 00:04:49;;;;;;;41.40;18.38;;;;;;;-3.18;83.09;99900.50;4953324;29;20035;-56
2021/12/06 00:07:38;;;;;;;35.83;16.45;;;;;;;-3.27;83.78;99896.75;4953796;29;20334;-56
2021/12/06 00:10:24;;;;;;;32.42;16.58;;;;;;;-3.26;83.89;99903.53;4959842;29;20059;-55
2021/12/06 00:13:10;;;;;;;31.27;16.48;;;;;;;-3.16;82.97;99898.03;4960839;29;20023;-56
2021/12/06 00:15:56;;;;;;;33.75;16.73;;;;;;;-3.13;82.96;99910.81;4960358;29;20224;-56
2021/12/06 00:18:42;;;;;;;37.17;18.17;;;;;;;-3.18;83.44;99915.69;4959569;29;20034;-56
2021/12/06 00:21:28;;;;;;;41.58;17.60;;;;;;;-3.20;83.29;99916.44;4959360;29;20019;-56
2021/12/06 00:24:14;;;;;;;43.42;18.42;;;;;;;-3.23;83.69;99916.34;4956980;29;20035;-56
2021/12/06 00:27:01;;;;;;;44.25;18.25;;;;;;;-3.09;83.42;99915.19;4952063;29;20047;-55
2021/12/06 00:29:48;;;;;;;36.10;18.92;;;;;;;-3.12;83.44;99915.06;4956843;29;20066;-55
2021/12/06 00:32:34;;;;;;;42.47;18.05;;;;;;;-3.12;83.83;99908.31;4943802;29;20091;-56
2021/12/06 00:35:21;;;;;;;43.00;18.77;;;;;;;-3.23;84.12;99913.81;4958691;29;20027;-56
2021/12/06 00:38:07;;;;;;;43.63;18.88;;;;;;;-3.06;83.76;99911.91;4959820;29;20027;-56
2021/12/06 00:40:53;;;;;;;37.67;18.17;;;;;;;-2.99;83.27;99916.38;4958026;29;20147;-56
2021/12/06 00:43:39;;;;;;;35.58;18.63;;;;;;;-2.97;83.87;99914.75;4961299;28;20248;-56
2021/12/06 00:46:26;;;;;;;38.92;17.90;;;;;;;-2.93;83.63;99911.53;4942676;29;20059;-55
2021/12/06 00:49:12;;;;;;;35.50;18.02;;;;;;;-3.08;83.23;99896.63;4960604;28;20027;-56
2021/12/06 00:51:58;;;;;;;40.22;17.25;;;;;;;-3.21;84.00;99904.56;4959805;29;20051;-56
2021/12/06 00:54:45;;;;;;;38.60;16.80;;;;;;;-3.31;83.14;99899.19;4959857;29;20151;-56
2021/12/06 00:57:31;;;;;;;42.22;18.38;;;;;;;-3.25;83.94;99901.09;4959825;29;20074;-57
2021/12/06 01:00:22;;;;;;;36.55;17.95;;;;;;;-3.62;83.14;99883.59;4960828;28;20097;-55
2021/12/06 01:03:16;;;;;;;31.25;16.55;;;;;;;-3.70;84.71;99865.63;4930332;29;20186;-56
2021/12/06 01:06:04;;;;;;;39.35;18.50;;;;;;;-4.03;84.59;99834.00;4945973;29;20328;-57
2021/12/06 01:08:50;;;;;;;38.22;18.35;;;;;;;-3.50;83.64;99902.66;4958686;29;20062;-55
2021/12/06 01:11:36;;;;;;;34.60;17.13;;;;;;;-3.34;83.85;99906.63;4946416;29;20031;-55
2021/12/06 01:14:21;;;;;;;40.35;17.35;;;;;;;-3.60;84.95;99905.66;4956522;29;20098;-55
2021/12/06 01:17:08;;;;;;;37.05;17.63;;;;;;;-3.56;84.36;99901.56;4959227;28;20339;-55
2021/12/06 01:19:54;;;;;;;42.13;18.15;;;;;;;-3.56;84.73;99907.50;4955035;29;20024;-55
2021/12/06 01:22:49;;;;;;;40.95;17.00;;;;;;;-3.52;83.96;99913.53;4947365;29;20109;-57
2021/12/06 01:40:36;;;;;;;37.80;16.88;;;;;;;-3.76;84.77;99909.25;4945076;29;20206;-56
2021/12/06 01:43:22;;;;;;;34.47;16.85;;;;;;;-3.67;84.33;99913.81;4957787;29;20027;-55
2021/12/06 01:46:08;;;;;;;35.80;17.33;;;;;;;-3.62;84.45;99917.34;4958013;29;20062;-55
2021/12/06 01:48:54;;;;;;;47.28;18.80;;;;;;;-3.94;84.69;99913.56;4959988;29;20027;-55
2021/12/06 01:51:41;;;;;;;43.38;17.38;;;;;;;-3.77;85.34;99917.63;4942571;29;20071;-55
2021/12/06 01:54:27;;;;;;;39.78;17.88;;;;;;;-3.73;84.59;99909.38;4941945;29;20031;-56
2021/12/06 01:57:14;;;;;;;39.38;18.27;;;;;;;-3.87;85.22;99920.59;4956949;29;20316;-57
2021/12/06 02:00:01;;;;;;;42.15;17.67;;;;;;;-3.74;84.92;99921.97;4958010;29;20051;-57
2021/12/06 02:02:47;;;;;;;39.67;16.88;;;;;;;-3.91;85.59;99917.06;4964907;29;20275;-56
2021/12/06 02:05:35;;;;;;;38.90;17.55;;;;;;;-3.89;84.97;99928.13;4965218;29;20031;-58
2021/12/06 02:08:21;;;;;;;40.55;16.85;;;;;;;-3.66;84.42;99923.97;4965730;29;20039;-58
2021/12/06 02:11:08;;;;;;;39.78;18.00;;;;;;;-3.65;83.92;99922.31;4964455;28;20034;-57
2021/12/06 02:14:04;;;;;;;38.35;17.80;;;;;;;-3.68;84.28;99927.25;4965032;29;20031;-57
2021/12/06 02:20:24;;;;;;;40.85;16.67;;;;;;;-3.46;83.81;99923.91;4925578;29;20091;-56
2021/12/06 02:23:10;;;;;;;38.97;16.83;;;;;;;-3.45;83.45;99935.75;4963128;29;20035;-56
2021/12/06 02:25:56;;;;;;;34.20;16.90;;;;;;;-3.74;85.18;99935.47;4949808;29;20031;-56
2021/12/06 02:28:42;;;;;;;37.30;16.52;;;;;;;-3.73;84.84;99936.34;4963732;29;20031;-58
2021/12/06 02:31:29;;;;;;;35.00;16.92;;;;;;;-3.49;84.47;99931.38;4964530;28;20099;-58
2021/12/06 02:34:15;;;;;;;37.75;17.50;;;;;;;-3.97;85.38;99937.06;4965713;28;20331;-58
2021/12/06 02:37:01;;;;;;;36.22;17.10;;;;;;;-3.82;85.63;99937.69;4964999;28;20343;-57
2021/12/06 02:39:47;;;;;;;40.35;18.75;;;;;;;-3.80;85.25;99940.28;4956996;29;20050;-56
2021/12/06 02:42:33;;;;;;;34.53;16.83;;;;;;;-3.77;84.43;99942.09;4963927;28;20031;-57
2021/12/06 02:45:22;;;;;;;38.33;17.90;;;;;;;-3.51;85.00;99945.63;4965782;29;20066;-56
2021/12/06 02:48:10;;;;;;;35.08;16.58;;;;;;;-3.75;84.26;99880.59;4964831;29;20027;-56
2021/12/06 02:51:00;;;;;;;36.55;16.48;;;;;;;-3.47;83.84;99952.56;4965168;29;20094;-57
2021/12/06 02:53:47;;;;;;;40.00;17.55;;;;;;;-3.35;83.86;99947.97;4958584;29;20046;-56
2021/12/06 02:57:19;;;;;;;40.15;16.73;;;;;;;-3.28;83.09;99943.13;4949087;29;20027;-56
2021/12/06 02:59:46;;;;;;;32.65;15.88;;;;;;;-3.57;83.53;99958.06;4965097;28;20086;-57
2021/12/06 03:02:32;;;;;;;33.70;16.77;;;;;;;-3.41;82.68;99965.44;4962486;29;20352;-56
2021/12/06 03:05:18;;;;;;;30.38;15.70;;;;;;;-3.25;83.31;99964.41;4964448;28;20041;-57
2021/12/06 03:08:06;;;;;;;33.08;14.98;;;;;;;-3.77;83.42;99965.72;4965048;29;20220;-56
2021/12/06 03:10:52;;;;;;;34.58;15.70;;;;;;;-3.65;82.87;99973.81;4964841;28;20045;-55
2021/12/06 03:13:38;;;;;;;35.58;15.75;;;;;;;-3.78;82.57;99970.72;4961762;28;20059;-56
2021/12/06 03:16:25;;;;;;;32.58;15.77;;;;;;;-3.83;83.14;99988.22;4961758;29;20035;-56
2021/12/06 03:19:11;;;;;;;30.90;15.82;;;;;;;-3.86;83.85;99983.91;4954976;29;20027;-57
2021/12/06 03:21:57;;;;;;;33.15;15.60;;;;;;;-3.87;83.34;99992.28;4951578;29;20038;-56
2021/12/06 03:24:44;;;;;;;39.35;16.45;;;;;;;-3.84;84.03;99997.47;4962051;29;20031;-56
2021/12/06 03:27:30;;;;;;;33.65;15.90;;;;;;;-3.52;82.94;99989.47;4958308;29;20031;-56
2021/12/06 03:30:16;;;;;;;35.58;15.32;;;;;;;-4.06;84.30;99994.84;4960485;29;20035;-57
2021/12/06 03:33:02;;;;;;;32.03;16.65;;;;;;;-3.89;82.17;99995.53;4962188;29;20039;-56
2021/12/06 03:35:48;;;;;;;33.83;16.20;;;;;;;-3.62;82.35;99992.44;4961371;29;20043;-56
2021/12/06 03:38:35;;;;;;;32.60;14.68;;;;;;;-3.73;82.35;99989.47;4962742;28;20043;-57
2021/12/06 03:41:23;;;;;;;34.03;14.63;;;;;;;-4.01;82.30;99952.91;4958923;29;20074;-57
2021/12/06 03:44:09;;;;;;;34.95;15.43;;;;;;;-4.06;83.06;99989.78;4961711;29;20035;-57
2021/12/06 03:47:03;;;;;;;29.30;14.57;;;;;;;-4.22;82.80;99956.28;4957970;29;20024;-57
2021/12/06 03:49:50;;;;;;;33.33;16.10;;;;;;;-4.13;82.58;99938.09;4959918;29;20047;-57
2021/12/06 03:52:36;;;;;;;34.30;14.80;;;;;;;-3.65;82.43;99996.59;4960329;29;20023;-58
2021/12/06 03:55:22;;;;;;;34.13;15.30;;;;;;;-3.75;81.91;99991.91;4960463;29;20376;-57
2021/12/06 03:58:08;;;;;;;31.42;15.18;;;;;;;-3.80;82.10;100008.59;4956890;29;20344;-57
2021/12/06 04:00:54;;;;;;;25.60;14.35;;;;;;;-4.38;82.21;99991.81;4960691;28;20041;-58
2021/12/06 04:03:43;;;;;;;30.60;15.25;;;;;;;-4.24;83.05;100005.06;4960215;29;20054;-58
2021/12/06 04:06:29;;;;;;;28.00;14.52;;;;;;;-4.00;83.17;100017.88;4962019;28;20328;-58
2021/12/06 04:09:15;;;;;;;28.70;14.50;;;;;;;-4.27;82.27;100017.56;4961266;28;20098;-57
2021/12/06 04:12:04;;;;;;;26.67;14.02;;;;;;;-4.54;82.71;99957.44;4943582;29;20031;-57
2021/12/06 04:14:51;;;;;;;28.52;14.20;;;;;;;-4.11;81.58;100022.47;4960368;29;20034;-57
2021/12/06 04:17:38;;;;;;;27.73;13.20;;;;;;;-4.31;80.14;100029.19;4944118;29;20039;-57
2021/12/06 04:20:24;;;;;;;23.42;12.90;;;;;;;-4.57;81.61;99970.78;4972543;28;20087;-57
2021/12/06 04:23:12;;;;;;;26.20;13.95;;;;;;;-4.04;81.13;100041.31;4946646;29;20051;-57
2021/12/06 04:25:58;;;;;;;27.63;13.80;;;;;;;-3.76;80.74;100038.28;4959540;29;20362;-57
2021/12/06 04:28:48;;;;;;;28.45;13.73;;;;;;;-3.81;80.34;100047.34;4960526;29;20111;-57
2021/12/06 04:31:39;;;;;;;27.98;14.30;;;;;;;-4.37;80.41;99996.94;4958882;29;20049;-58
2021/12/06 04:34:24;;;;;;;24.88;12.88;;;;;;;-4.08;80.62;100050.41;4959497;29;20038;-57
2021/12/06 04:37:11;;;;;;;24.98;13.70;;;;;;;-4.12;80.62;100061.19;4960884;29;20036;-58
2021/12/06 04:39:57;;;;;;;27.38;13.90;;;;;;;-4.07;79.75;100054.69;4960322;29;20067;-57
2021/12/06 04:42:43;;;;;;;28.58;13.90;;;;;;;-4.19;80.21;100056.66;4959224;29;20071;-57
2021/12/06 04:45:30;;;;;;;24.95;13.90;;;;;;;-4.23;80.69;100072.50;4957609;29;20551;-58
2021/12/06 04:48:16;;;;;;;22.08;13.32;;;;;;;-4.30;79.40;100046.09;4959755;29;20031;-57
2021/12/06 04:51:04;;;;;;;28.02;12.95;;;;;;;-4.55;80.69;100054.25;4959835;29;20034;-57
2021/12/06 04:53:50;;;;;;;23.33;12.80;;;;;;;-4.44;81.42;100057.25;4959263;29;20039;-58
2021/12/06 04:56:40;;;;;;;27.10;14.55;;;;;;;-4.22;80.17;100049.84;4960816;28;20039;-58
2021/12/06 04:59:38;;;;;;;26.65;13.77;;;;;;;-4.16;80.19;100052.63;4959518;29;20023;-58
2021/12/06 05:02:30;;;;;;;24.38;12.52;;;;;;;-4.81;80.13;99995.81;4959523;29;20139;-57
2021/12/06 05:05:27;;;;;;;24.30;12.77;;;;;;;-4.58;81.42;100069.28;4960280;28;20023;-55
2021/12/06 05:08:23;;;;;;;25.33;12.98;;;;;;;-4.47;81.25;100052.94;4959710;29;20070;-57
2021/12/06 05:11:10;;;;;;;23.05;12.75;;;;;;;-4.61;79.62;100059.88;4960213;28;20394;-57
2021/12/06 05:13:58;;;;;;;25.50;13.02;;;;;;;-4.61;80.11;100064.94;4954019;29;20036;-57
2021/12/06 05:16:44;;;;;;;28.65;13.98;;;;;;;-4.66;80.88;100056.28;4958663;29;20031;-57
2021/12/06 05:19:30;;;;;;;26.48;13.45;;;;;;;-4.39;81.59;100068.44;4959093;29;20027;-56
2021/12/06 05:22:16;;;;;;;25.55;13.20;;;;;;;-4.49;81.19;100059.56;4941986;29;20103;-57
2021/12/06 05:25:04;;;;;;;24.85;13.38;;;;;;;-4.55;80.25;100066.88;4941583;29;20039;-57
2021/12/06 05:27:51;;;;;;;27.02;13.02;;;;;;;-4.32;80.74;100062.00;4957242;29;20050;-57
2021/12/06 05:30:39;;;;;;;24.88;14.25;;;;;;;-4.39;80.81;100071.84;4958830;29;20034;-56
2021/12/06 05:33:31;;;;;;;26.27;13.20;;;;;;;-4.35;80.93;100066.13;4943973;29;20038;-57
2021/12/06 05:36:17;;;;;;;28.10;14.05;;;;;;;-4.24;81.52;100065.72;4957610;28;20031;-56
2021/12/06 05:39:06;;;;;;;27.00;14.27;;;;;;;-4.35;81.62;100070.28;4955687;29;20038;-56
2021/12/06 05:41:52;;;;;;;32.08;16.23;;;;;;;-4.40;81.72;100075.16;4969460;28;20383;-56
2021/12/06 05:44:38;;;;;;;28.20;15.43;;;;;;;-4.65;82.28;100078.22;4952640;29;20095;-56
2021/12/06 05:47:24;;;;;;;29.88;15.90;;;;;;;-4.88;84.37;100067.06;4954257;29;20034;-57
2021/12/06 05:50:11;;;;;;;35.30;16.27;;;;;;;-5.01;85.60;100093.41;4954046;29;20023;-57
2021/12/06 05:52:57;;;;;;;34.25;17.75;;;;;;;-4.86;85.18;100063.81;4955472;29;20110;-58
2021/12/06 05:55:44;;;;;;;34.15;17.20;;;;;;;-4.96;84.92;100069.25;4955675;29;20031;-58
2021/12/06 05:58:32;;;;;;;36.95;15.60;;;;;;;-4.65;85.20;100077.38;4956778;29;20035;-58
2021/12/06 06:01:18;;;;;;;36.10;18.20;;;;;;;-4.57;83.48;100074.38;4953181;29;20031;-58
2021/12/06 06:04:04;;;;;;;36.70;16.38;;;;;;;-4.73;84.85;100080.41;4957646;29;20027;-57
2021/12/06 06:06:50;;;;;;;35.35;18.02;;;;;;;-4.81;85.41;100076.66;4948998;28;20090;-58
2021/12/06 06:09:35;;;;;;;39.83;18.85;;;;;;;-4.58;85.06;100080.22;4949953;29;20102;-56
2021/12/06 06:12:21;;;;;;;36.45;17.77;;;;;;;-4.34;84.24;100074.56;4947688;29;20051;-57
2021/12/06 06:15:08;;;;;;;36.38;17.02;;;;;;;-4.28;83.47;100074.81;4944149;28;20103;-56
2021/12/06 06:17:55;;;;;;;33.05;16.45;;;;;;;-4.25;83.98;100081.69;4953041;29;20032;-58
2021/12/06 06:20:53;;;;;;;33.92;16.15;;;;;;;-4.79;82.54;100014.44;4957379;29;20027;-58
2021/12/06 06:23:39;;;;;;;32.97;15.90;;;;;;;-4.48;82.36;100079.00;4955992;29;20043;-58
2021/12/06 06:26:25;;;;;;;39.40;18.10;;;;;;;-4.38;83.37;100083.66;4957466;29;20027;-57
2021/12/06 06:29:12;;;;;;;35.60;17.23;;;;;;;-4.22;83.32;100081.81;4957281;29;20050;-57
2021/12/06 06:31:58;;;;;;;34.95;17.50;;;;;;;-4.48;82.40;100089.09;4942028;29;20091;-56
2021/12/06 06:34:44;;;;;;;35.92;17.73;;;;;;;-4.49;83.59;100087.34;4959031;28;20043;-59
2021/12/06 06:37:30;;;;;;;40.17;18.60;;;;;;;-4.60;82.96;100091.94;4958288;29;20036;-56
2021/12/06 06:40:17;;;;;;;35.08;17.23;;;;;;;-4.62;83.24;100122.97;4941296;29;20082;-57
2021/12/06 06:43:04;;;;;;;35.78;16.95;;;;;;;-4.63;83.80;100109.50;4958466;29;20096;-57
2021/12/06 06:45:50;;;;;;;36.22;18.60;;;;;;;-4.80;84.23;100112.88;4957869;29;20109;-57
2021/12/06 06:48:36;;;;;;;34.47;16.55;;;;;;;-4.80;84.01;100108.72;4945773;29;20106;-57
2021/12/06 06:51:23;;;;;;;37.30;18.13;;;;;;;-4.80;84.42;100128.03;4962570;28;20043;-57
2021/12/06 06:54:09;;;;;;;37.60;18.88;;;;;;;-4.65;83.81;100125.38;4960556;29;20031;-56
2021/12/06 06:56:54;;;;;;;38.15;16.80;;;;;;;-4.74;83.16;100130.88;4960126;29;20058;-58
2021/12/06 06:59:40;;;;;;;35.03;17.35;;;;;;;-4.67;84.31;100132.88;4943953;29;20035;-57
2021/12/06 07:02:26;;;;;;;45.40;17.98;;;;;;;-4.59;84.25;100129.06;4962322;29;20035;-57
2021/12/06 07:05:13;;;;;;;35.80;17.63;;;;;;;-4.77;83.17;100128.19;4962125;29;20212;-57
2021/12/06 07:08:00;;;;;;;36.03;17.70;;;;;;;-4.61;82.97;100129.78;4960860;29;20329;-57
2021/12/06 07:10:49;;;;;;;38.10;18.85;;;;;;;-4.48;82.82;100126.16;4961021;29;20027;-57
2021/12/06 07:13:38;;;;;;;41.13;18.70;;;;;;;-4.78;83.79;100146.66;4959693;29;20152;-56
2021/12/06 07:16:26;;;;;;;40.80;19.42;;;;;;;-4.56;84.27;100138.41;4959201;29;20098;-57
2021/12/06 07:19:12;;;;;;;43.17;18.95;;;;;;;-4.44;82.53;100139.00;4962516;29;20022;-60
2021/12/06 07:21:59;;;;;;;42.40;18.55;;;;;;;-4.35;82.38;100143.59;4959989;29;20228;-57
2021/12/06 07:24:45;;;;;;;36.30;19.00;;;;;;;-4.60;83.70;100144.13;4958955;29;20202;-57
2021/12/06 07:27:32;;;;;;;44.55;20.23;;;;;;;-4.59;84.01;100143.34;4961612;29;20087;-58
2021/12/06 07:30:19;;;;;;;44.92;18.88;;;;;;;-4.34;84.39;100136.09;4959062;29;20198;-57
2021/12/06 07:33:06;;;;;;;44.90;21.05;;;;;;;-4.20;82.48;100138.41;4960618;29;20033;-57
2021/12/06 07:35:52;;;;;;;50.00;19.52;;;;;;;-4.25;83.50;100142.38;4953053;29;20034;-56
2021/12/06 07:38:39;;;;;;;50.47;21.15;;;;;;;-4.16;83.29;100142.81;4954988;29;20043;-57
2021/12/06 07:41:29;;;;;;;44.45;21.35;;;;;;;-4.08;82.24;100145.66;4961220;29;20042;-56
2021/12/06 07:44:15;;;;;;;49.92;22.60;;;;;;;-4.29;82.90;100148.06;4959580;29;20042;-56
2021/12/06 07:47:01;;;;;;;48.63;21.20;;;;;;;-4.44;82.47;100159.22;4949902;29;20028;-57
2021/12/06 07:49:47;;;;;;;47.33;22.45;;;;;;;-4.19;83.59;100152.75;4944640;29;20071;-56
2021/12/06 07:52:34;;;;;;;45.22;20.45;;;;;;;-4.00;82.72;100157.84;4959053;29;20228;-57
2021/12/06 07:55:22;;;;;;;52.33;21.65;;;;;;;-4.45;82.12;100086.72;4961523;29;20039;-57
2021/12/06 07:58:09;;;;;;;45.08;21.80;;;;;;;-3.83;82.83;100152.69;4945596;29;20024;-56
2021/12/06 08:00:55;;;;;;;47.03;21.23;;;;;;;-3.93;82.60;100146.34;4960573;29;20328;-57
2021/12/06 08:03:42;;;;;;;45.70;20.70;;;;;;;-3.88;81.82;100159.19;4943678;29;20384;-56
2021/12/06 08:06:29;;;;;;;46.97;20.73;;;;;;;-4.04;82.67;100150.91;4958227;29;20031;-57
2021/12/06 08:09:16;;;;;;;46.85;20.73;;;;;;;-4.15;82.70;100154.63;4961141;29;20031;-57
2021/12/06 08:12:02;;;;;;;42.95;20.33;;;;;;;-4.21;83.30;100157.75;4961385;29;20047;-59
2021/12/06 08:14:48;;;;;;;51.97;22.70;;;;;;;-4.26;83.93;100168.44;4959600;29;20039;-56
2021/12/06 08:17:34;;;;;;;49.03;21.92;;;;;;;-4.32;84.50;100166.50;4959808;29;20173;-57
2021/12/06 08:20:20;;;;;;;46.85;21.42;;;;;;;-4.29;84.08;100164.13;4954301;28;20039;-57
2021/12/06 08:23:06;;;;;;;54.95;22.60;;;;;;;-4.12;83.39;100175.00;4961038;28;20106;-57
2021/12/06 08:25:53;;;;;;;50.80;22.25;;;;;;;-4.07;83.67;100168.50;4958172;29;20047;-58
2021/12/06 08:28:40;;;;;;;45.35;21.58;;;;;;;-4.02;83.39;100184.75;4954048;29;20063;-57
2021/12/06 08:31:29;;;;;;;45.65;21.13;;;;;;;-4.04;82.97;100160.19;4951501;29;20495;-57
2021/12/06 08:34:14;;;;;;;46.72;20.25;;;;;;;-3.97;83.78;100164.72;4957443;29;20035;-56
2021/12/06 08:37:01;;;;;;;48.15;21.30;;;;;;;-4.01;83.76;100146.00;4945381;29;20054;-57
2021/12/06 08:39:47;;;;;;;46.90;21.15;;;;;;;-3.65;82.87;100170.31;4957161;29;20067;-57
2021/12/06 08:42:33;;;;;;;52.65;24.50;;;;;;;-3.75;82.39;100161.44;4958337;29;20135;-57
2021/12/06 08:45:21;;;;;;;45.38;21.38;;;;;;;-4.17;82.07;100103.97;4959547;28;20144;-57
2021/12/06 08:48:07;;;;;;;43.40;20.73;;;;;;;-3.90;83.65;100165.88;4955252;29;20023;-57
2021/12/06 08:50:55;;;;;;;46.53;21.40;;;;;;;-4.38;84.70;100100.50;4956904;29;20066;-57
2021/12/06 08:53:45;;;;;;;42.08;20.08;;;;;;;-4.17;84.62;100123.34;4949602;29;20658;-56
2021/12/06 08:56:31;;;;;;;50.65;22.83;;;;;;;-3.71;84.81;100170.91;4948131;29;20038;-56
2021/12/06 08:59:17;;;;;;;40.03;19.38;;;;;;;-3.73;85.90;100181.78;4958504;29;20220;-56
2021/12/06 09:02:04;;;;;;;38.58;20.67;;;;;;;-3.56;85.18;100173.25;4951698;29;20082;-56
2021/12/06 09:04:50;;;;;;;36.00;17.88;;;;;;;-3.90;86.30;100165.88;4959328;29;20035;-56
2021/12/06 09:07:36;;;;;;;38.47;19.05;;;;;;;-3.62;86.42;100167.06;4960280;29;20038;-58
2021/12/06 09:10:23;;;;;;;41.95;20.30;;;;;;;-3.60;86.73;100161.28;4956675;28;20082;-57
2021/12/06 09:13:09;;;;;;;43.03;18.98;;;;;;;-3.53;85.28;100154.81;4957446;29;20090;-56
2021/12/06 09:15:59;;;;;;;41.50;20.10;;;;;;;-3.69;86.39;100154.16;4947238;29;20028;-56
2021/12/06 09:18:45;;;;;;;38.00;19.90;;;;;;;-3.45;86.05;100163.56;4954988;29;20039;-57
2021/12/06 09:21:37;;;;;;;40.13;20.75;;;;;;;-3.52;85.92;100154.88;4958323;28;20035;-57
2021/12/06 09:24:23;;;;;;;42.65;21.13;;;;;;;-3.30;86.47;100164.22;4958542;29;20070;-58
2021/12/06 09:27:09;;;;;;;40.45;19.95;;;;;;;-3.21;85.91;100143.50;4952657;29;20035;-58
2021/12/06 09:29:57;;;;;;;39.83;20.02;;;;;;;-3.45;86.03;100155.97;4958555;29;20054;-57
2021/12/06 09:32:43;;;;;;;38.03;19.83;;;;;;;-3.18;85.75;100173.16;4957076;29;20371;-58
2021/12/06 09:35:30;;;;;;;44.20;22.38;;;;;;;-3.10;84.85;100170.94;4944778;29;20078;-59
2021/12/06 09:38:20;;;;;;;45.22;21.67;;;;;;;-3.31;84.59;100161.63;4959196;29;20352;-59
2021/12/06 09:41:14;;;;;;;45.92;22.08;;;;;;;-3.47;84.70;100120.47;4958557;29;20051;-62
2021/12/06 09:44:02;;;;;;;40.55;21.67;;;;;;;-3.12;84.44;100160.75;4959127;29;20101;-57
2021/12/06 09:46:48;;;;;;;42.42;23.60;;;;;;;-3.23;85.04;100167.91;4958023;29;20094;-57
2021/12/06 09:49:34;;;;;;;47.17;23.33;;;;;;;-2.96;84.58;100164.78;4955062;29;20031;-57
2021/12/06 09:52:21;;;;;;;46.22;22.50;;;;;;;-3.07;83.18;100156.72;4958974;29;20557;-56
2021/12/06 09:55:07;;;;;;;46.72;23.35;;;;;;;-2.94;84.04;100183.44;4943725;29;20035;-61
2021/12/06 09:57:53;;;;;;;47.65;22.33;;;;;;;-2.97;83.60;100174.03;4957312;28;20336;-57
2021/12/06 10:00:44;;;;;;;42.28;22.83;;;;;;;-2.99;83.46;100165.50;4956945;28;20334;-57
2021/12/06 10:03:30;;;;;;;45.88;23.65;;;;;;;-2.79;83.30;100183.22;4956283;29;20035;-57
2021/12/06 10:06:17;;;;;;;40.92;22.50;;;;;;;-3.24;82.84;100081.72;4954313;29;20843;-56
2021/12/06 10:09:06;;;;;;;45.00;23.00;;;;;;;-3.11;83.82;100195.41;4955317;29;20388;-59
2021/12/06 10:11:54;;;;;;;48.03;24.58;;;;;;;-3.61;84.06;100110.59;4957217;29;20031;-57
2021/12/06 10:14:42;;;;;;;50.72;24.75;;;;;;;-3.21;83.92;100184.00;4954795;29;20047;-57
2021/12/06 10:17:28;;;;;;;62.85;26.90;;;;;;;-3.24;83.72;100188.09;4954331;29;20031;-57
2021/12/06 10:20:15;;;;;;;54.63;26.88;;;;;;;-3.18;83.55;100183.28;4957582;28;20031;-58
2021/12/06 10:23:01;;;;;;;52.72;25.60;;;;;;;-3.21;84.08;100175.56;4955681;28;20039;-57
2021/12/06 10:25:49;;;;;;;48.50;25.52;;;;;;;-3.21;83.76;100178.94;4957077;28;20324;-58
2021/12/06 10:28:39;;;;;;;59.33;27.13;;;;;;;-3.03;83.08;100167.88;4957227;29;20042;-57
2021/12/06 10:31:26;;;;;;;46.78;24.95;;;;;;;-2.96;83.01;100174.91;4955682;29;20061;-57
2021/12/06 10:34:18;;;;;;;45.53;25.88;;;;;;;-2.89;83.19;100201.34;4960362;29;20036;-57
2021/12/06 10:37:04;;;;;;;43.55;24.52;;;;;;;-2.79;82.74;100181.53;4948375;29;20043;-57
2021/12/06 10:39:53;;;;;;;45.88;24.95;;;;;;;-2.70;82.99;100178.50;4959072;29;20043;-57
2021/12/06 10:42:42;;;;;;;42.40;24.90;;;;;;;-2.77;81.95;100187.50;4962765;28;20031;-58
2021/12/06 10:45:32;;;;;;;47.15;24.92;;;;;;;-2.80;82.53;100199.22;4951293;29;20320;-57
2021/12/06 10:48:33;;;;;;;49.35;24.98;;;;;;;-2.69;82.01;100186.97;4960413;29;20023;-57
2021/12/06 10:51:20;;;;;;;42.70;22.02;;;;;;;-2.58;80.93;100182.31;4962323;28;20228;-57
2021/12/06 10:54:16;;;;;;;38.60;22.77;;;;;;;-3.20;81.67;100119.03;4961268;29;20039;-56
2021/12/06 10:57:04;;;;;;;42.78;23.05;;;;;;;-2.89;80.75;100197.16;4961116;29;20111;-57
2021/12/06 10:59:50;;;;;;;39.22;21.95;;;;;;;-2.96;80.96;100196.03;4959245;28;20328;-57
2021/12/06 11:02:49;;;;;;;37.15;21.40;;;;;;;-3.22;80.91;100130.75;4960244;29;20050;-57
2021/12/06 11:05:35;;;;;;;37.58;22.08;;;;;;;-2.72;81.39;100187.72;4958990;28;20046;-57
2021/12/06 11:08:22;;;;;;;38.20;21.55;;;;;;;-2.97;81.20;100184.16;4957964;29;20224;-56
2021/12/06 11:11:13;;;;;;;36.17;21.15;;;;;;;-2.72;81.28;100189.38;4952355;29;20023;-57
2021/12/06 11:14:12;;;;;;;35.90;20.92;;;;;;;-3.07;79.59;100136.47;4953571;29;20046;-57
2021/12/06 11:17:01;;;;;;;35.35;19.73;;;;;;;-3.00;79.60;100143.50;4956366;28;20030;-58
2021/12/06 11:19:51;;;;;;;34.58;19.40;;;;;;;-2.79;79.50;100142.66;4959504;29;20526;-57
2021/12/06 11:22:40;;;;;;;31.42;19.25;;;;;;;-2.29;79.23;100207.16;4958214;29;20058;-57
2021/12/06 11:25:33;;;;;;;32.33;19.75;;;;;;;-2.40;79.64;100213.47;4957069;28;20031;-57
2021/12/06 11:28:31;;;;;;;33.70;19.60;;;;;;;-2.35;78.88;100196.78;4961523;29;20190;-56
2021/12/06 11:31:18;;;;;;;34.85;19.80;;;;;;;-2.44;78.95;100196.41;4958388;28;20026;-57
2021/12/06 11:34:06;;;;;;;40.47;20.98;;;;;;;-2.41;79.29;100191.44;4954135;28;20031;-57
2021/12/06 11:36:53;;;;;;;33.25;20.70;;;;;;;-2.31;78.90;100212.97;4959286;28;20054;-58
2021/12/06 11:39:39;;;;;;;33.22;20.92;;;;;;;-2.30;79.41;100199.47;4961181;28;20360;-57
2021/12/06 11:42:25;;;;;;;35.00;20.73;;;;;;;-2.52;78.79;100212.97;4959129;29;20031;-56
2021/12/06 11:45:11;;;;;;;39.35;21.15;;;;;;;-2.43;78.89;100220.97;4961337;28;20039;-57
2021/12/06 11:48:24;;;;;;;33.08;19.65;;;;;;;-2.19;79.22;100228.66;4959700;29;20031;-56
2021/12/06 11:51:14;;;;;;;32.53;19.25;;;;;;;-2.62;79.03;100234.59;4950930;28;20065;-57
2021/12/06 11:54:00;;;;;;;32.53;20.58;;;;;;;-2.45;79.29;100235.28;4957411;28;20032;-56
2021/12/06 11:56:49;;;;;;;35.55;20.70;;;;;;;-2.46;79.15;100226.78;4960510;29;20336;-56
2021/12/06 12:00:04;;;;;;;36.03;20.52;;;;;;;-3.05;79.03;100157.69;4942874;29;20043;-57
2021/12/06 12:02:55;;;;;;;33.03;19.98;;;;;;;-3.02;79.53;100162.88;4950069;29;20039;-57
2021/12/06 12:05:41;;;;;;;32.25;19.63;;;;;;;-2.63;79.58;100225.25;4959632;29;20042;-57
2021/12/06 12:08:34;;;;;;;31.10;19.58;;;;;;;-2.68;79.93;100211.50;4961495;29;20090;-57
2021/12/06 12:11:20;;;;;;;33.53;19.83;;;;;;;-2.37;80.39;100228.81;4959694;29;20031;-56
2021/12/06 12:14:13;;;;;;;30.98;18.17;;;;;;;-2.93;80.66;100223.19;4961333;28;20668;-58
2021/12/06 12:17:01;;;;;;;34.95;20.92;;;;;;;-2.56;80.19;100218.75;4956938;29;20217;-57
2021/12/06 12:19:50;;;;;;;31.38;19.90;;;;;;;-2.48;79.85;100224.97;4952667;29;20101;-57
2021/12/06 12:22:38;;;;;;;31.95;17.77;;;;;;;-2.88;80.78;100230.97;4956723;29;20443;-57
2021/12/06 12:25:31;;;;;;;34.17;20.45;;;;;;;-2.61;80.81;100229.56;4958137;29;20102;-57
2021/12/06 12:31:11;;;;;;;33.63;19.67;;;;;;;-3.01;80.80;100158.66;4956994;29;20260;-56
2021/12/06 12:33:57;;;;;;;33.45;17.75;;;;;;;-3.20;81.95;100225.41;4958964;29;20031;-56
2021/12/06 12:36:43;;;;;;;32.65;19.52;;;;;;;-2.90;81.66;100219.91;4941868;29;20233;-58
2021/12/06 12:39:29;;;;;;;32.35;19.20;;;;;;;-3.11;82.72;100225.78;4942409;29;20039;-60
2021/12/06 12:42:17;;;;;;;31.15;17.85;;;;;;;-2.82;81.72;100216.88;4959056;29;20207;-58
2021/12/06 12:45:05;;;;;;;29.42;17.88;;;;;;;-3.09;81.57;100193.81;4959247;28;20045;-58
2021/12/06 12:47:55;;;;;;;27.83;16.80;;;;;;;-2.95;81.29;100210.44;4958774;28;20050;-57
2021/12/06 12:50:50;;;;;;;27.35;16.92;;;;;;;-2.90;81.48;100214.84;4943923;29;20547;-58
2021/12/06 12:53:45;;;;;;;28.60;17.75;;;;;;;-2.80;81.48;100201.75;4958999;29;20046;-57
2021/12/06 12:56:51;;;;;;;29.38;17.83;;;;;;;-2.75;81.13;100215.47;4957863;29;20332;-57
2021/12/06 12:59:47;;;;;;;29.80;17.92;;;;;;;-2.67;81.36;100231.00;4957696;29;20288;-58
2021/12/06 13:02:35;;;;;;;29.40;18.30;;;;;;;-2.83;81.92;100232.03;4951795;29;20500;-57
2021/12/06 13:05:26;;;;;;;27.77;17.20;;;;;;;-3.49;82.89;100144.03;4951213;29;20363;-56
2021/12/06 13:08:12;;;;;;;30.77;18.85;;;;;;;-2.76;82.53;100213.75;4958336;29;20035;-57